Cacule, Brazil
Current Conditions -  °F | °C
As of 9:00 PM on Friday 19 Dec 2014 (Local Time) from SBQV Reporting Station
Scattered Clouds Scattered Clouds  
Wind Chill: 72°   Ceiling: Unl
Heat Index: 72°   Visibility: 6mi
Dew Point: 72°   Wind: 6mph
Humidity: 100%   Direction: 110°ESE
Pressure: 30.03"   Gusts: NA
Location:  14.5°S, 42.22°W
Report Text: SBQV 200000Z 11005KT 9999 SCT005 22/22 Q1017
Loading
Personal Weather Stations






























Interactive Weather Map New forecast layout! Learn more

10-Day Weather Forecast

Advertisements
Track Severe Weather on mobile